Ketchikan International Airport Ketchikan US
ICAO: PAKT
IATA: KTN
Category: Medium
Scheduled Services:

Elevation: 89 ft
TransAlt. 18000 ft.

Airport Communications:
ATIS:119.9
ANCHORAGE CNTR:118.5
CTAF:123.6
RDO:123.6
UNICOM:122.95

PAKT Zoom In..

Runways:

(A) RW 11 length 7500 ft width 150 ft
ILS 109.30 / hdg 115

(B) RW 29 length 7500 ft width 150 ft
---- / hdg 295

Location; PAKT
Day. 21 / Time. 14.53 Zulu
* Altimeter: 29.87
* Temperature: 11° c. 51.8°f.
* Wind from: PAK° Speed T kn.
Dewpoint: 09° c.
Visibility: 4 Statute Miles.
Clouds: Scattered 800 ft.
Clouds: Overcast 2000 ft.
Conditions: Light Rain.Conditions: Mist.

PAKT 211453Z 14016G28KT 4SM -RA BR SCT008 OVC020 11/09 A2987 RMK AO2 PK WND 13028/1447 SLP117 HARBOR WIND 13020KT P0010 60051 T01060094 58000


Wind From PAK°
Speed T kn.

 
 
jpsmedia.com for Web Design SOUNDCLOUD worldairports.se 2018   terms of use